sensor_id;sensor_type;location;lat;lon;timestamp;temperature;humidity
9223;DHT22;7557;51.698;3.942;2022-07-19T00:00:24;25.70;87.30
9223;DHT22;7557;51.698;3.942;2022-07-19T00:02:52;25.70;87.30
9223;DHT22;7557;51.698;3.942;2022-07-19T00:05:20;25.70;87.30
9223;DHT22;7557;51.698;3.942;2022-07-19T00:07:47;25.80;87.20
9223;DHT22;7557;51.698;3.942;2022-07-19T00:10:16;25.70;87.30
9223;DHT22;7557;51.698;3.942;2022-07-19T00:12:46;25.70;87.40
9223;DHT22;7557;51.698;3.942;2022-07-19T00:15:14;25.60;87.70
9223;DHT22;7557;51.698;3.942;2022-07-19T00:17:45;25.60;87.90
9223;DHT22;7557;51.698;3.942;2022-07-19T00:20:15;25.60;87.80
9223;DHT22;7557;51.698;3.942;2022-07-19T00:22:42;25.60;87.70
9223;DHT22;7557;51.698;3.942;2022-07-19T00:25:10;25.60;87.70
9223;DHT22;7557;51.698;3.942;2022-07-19T00:27:38;25.60;87.90
9223;DHT22;7557;51.698;3.942;2022-07-19T00:30:07;25.60;87.80
9223;DHT22;7557;51.698;3.942;2022-07-19T00:32:34;25.50;88.00
9223;DHT22;7557;51.698;3.942;2022-07-19T00:35:03;25.40;88.30
9223;DHT22;7557;51.698;3.942;2022-07-19T00:37:30;25.40;88.70
9223;DHT22;7557;51.698;3.942;2022-07-19T00:39:58;25.20;89.00
9223;DHT22;7557;51.698;3.942;2022-07-19T00:42:25;25.00;89.60
9223;DHT22;7557;51.698;3.942;2022-07-19T00:44:52;24.80;90.00
9223;DHT22;7557;51.698;3.942;2022-07-19T00:47:20;24.60;90.30
9223;DHT22;7557;51.698;3.942;2022-07-19T00:49:47;24.50;90.50
9223;DHT22;7557;51.698;3.942;2022-07-19T00:52:16;24.40;90.70
9223;DHT22;7557;51.698;3.942;2022-07-19T00:55:10;24.40;90.70
9223;DHT22;7557;51.698;3.942;2022-07-19T00:57:37;24.40;90.80
9223;DHT22;7557;51.698;3.942;2022-07-19T01:00:07;24.40;90.80
9223;DHT22;7557;51.698;3.942;2022-07-19T01:02:35;24.40;90.80
9223;DHT22;7557;51.698;3.942;2022-07-19T01:05:03;24.40;90.90
9223;DHT22;7557;51.698;3.942;2022-07-19T01:07:33;24.20;91.00
9223;DHT22;7557;51.698;3.942;2022-07-19T01:10:03;24.10;91.20
9223;DHT22;7557;51.698;3.942;2022-07-19T01:12:32;24.20;91.20
9223;DHT22;7557;51.698;3.942;2022-07-19T01:15:00;24.20;91.20
9223;DHT22;7557;51.698;3.942;2022-07-19T01:17:27;24.20;91.20
9223;DHT22;7557;51.698;3.942;2022-07-19T01:19:55;24.10;91.30
9223;DHT22;7557;51.698;3.942;2022-07-19T01:22:24;24.00;91.40
9223;DHT22;7557;51.698;3.942;2022-07-19T01:24:51;24.00;91.50
9223;DHT22;7557;51.698;3.942;2022-07-19T01:27:18;24.00;91.40
9223;DHT22;7557;51.698;3.942;2022-07-19T01:29:45;24.10;91.30
9223;DHT22;7557;51.698;3.942;2022-07-19T01:32:12;24.10;91.30
9223;DHT22;7557;51.698;3.942;2022-07-19T01:34:39;24.10;91.30
9223;DHT22;7557;51.698;3.942;2022-07-19T01:37:07;24.20;91.20
9223;DHT22;7557;51.698;3.942;2022-07-19T01:39:35;24.20;91.30
9223;DHT22;7557;51.698;3.942;2022-07-19T01:42:02;24.20;91.20
9223;DHT22;7557;51.698;3.942;2022-07-19T01:44:30;24.20;91.20
9223;DHT22;7557;51.698;3.942;2022-07-19T01:46:57;24.20;91.30
9223;DHT22;7557;51.698;3.942;2022-07-19T01:49:24;24.00;91.40
9223;DHT22;7557;51.698;3.942;2022-07-19T01:51:51;23.80;91.60
9223;DHT22;7557;51.698;3.942;2022-07-19T01:54:18;23.80;91.70
9223;DHT22;7557;51.698;3.942;2022-07-19T01:56:46;23.80;91.80
9223;DHT22;7557;51.698;3.942;2022-07-19T01:59:14;23.80;91.70
9223;DHT22;7557;51.698;3.942;2022-07-19T02:01:41;23.80;91.70
9223;DHT22;7557;51.698;3.942;2022-07-19T02:04:08;23.90;91.60
9223;DHT22;7557;51.698;3.942;2022-07-19T02:06:35;23.90;91.60
9223;DHT22;7557;51.698;3.942;2022-07-19T02:09:02;23.90;92.00
9223;DHT22;7557;51.698;3.942;2022-07-19T02:11:29;23.90;91.60
9223;DHT22;7557;51.698;3.942;2022-07-19T02:14:05;24.00;91.50
9223;DHT22;7557;51.698;3.942;2022-07-19T02:16:32;24.00;91.50
9223;DHT22;7557;51.698;3.942;2022-07-19T02:18:59;24.00;91.50
9223;DHT22;7557;51.698;3.942;2022-07-19T02:21:27;23.90;91.50
9223;DHT22;7557;51.698;3.942;2022-07-19T02:23:54;24.00;91.60
9223;DHT22;7557;51.698;3.942;2022-07-19T02:26:21;24.00;91.60
9223;DHT22;7557;51.698;3.942;2022-07-19T02:28:48;23.90;91.70
9223;DHT22;7557;51.698;3.942;2022-07-19T02:31:17;23.70;91.80
9223;DHT22;7557;51.698;3.942;2022-07-19T02:33:44;23.60;92.00
9223;DHT22;7557;51.698;3.942;2022-07-19T02:36:11;23.50;92.10
9223;DHT22;7557;51.698;3.942;2022-07-19T02:38:39;23.40;92.20
9223;DHT22;7557;51.698;3.942;2022-07-19T02:41:06;23.40;92.30
9223;DHT22;7557;51.698;3.942;2022-07-19T02:43:33;23.40;92.40
9223;DHT22;7557;51.698;3.942;2022-07-19T02:46:01;23.40;92.50
9223;DHT22;7557;51.698;3.942;2022-07-19T02:48:29;23.40;92.40
9223;DHT22;7557;51.698;3.942;2022-07-19T02:50:56;23.30;92.50
9223;DHT22;7557;51.698;3.942;2022-07-19T02:53:24;23.20;92.60
9223;DHT22;7557;51.698;3.942;2022-07-19T02:55:51;23.10;92.80
9223;DHT22;7557;51.698;3.942;2022-07-19T02:58:18;23.00;92.90
9223;DHT22;7557;51.698;3.942;2022-07-19T03:00:45;22.90;93.00
9223;DHT22;7557;51.698;3.942;2022-07-19T03:03:13;22.80;93.10
9223;DHT22;7557;51.698;3.942;2022-07-19T03:05:59;22.80;93.20
9223;DHT22;7557;51.698;3.942;2022-07-19T03:08:26;22.80;93.20
9223;DHT22;7557;51.698;3.942;2022-07-19T03:10:53;22.80;93.10
9223;DHT22;7557;51.698;3.942;2022-07-19T03:13:20;22.90;93.00
9223;DHT22;7557;51.698;3.942;2022-07-19T03:15:47;22.90;93.10
9223;DHT22;7557;51.698;3.942;2022-07-19T03:18:14;22.80;93.10
9223;DHT22;7557;51.698;3.942;2022-07-19T03:20:42;22.90;93.00
9223;DHT22;7557;51.698;3.942;2022-07-19T03:23:11;23.00;92.80
9223;DHT22;7557;51.698;3.942;2022-07-19T03:25:38;23.10;92.70
9223;DHT22;7557;51.698;3.942;2022-07-19T03:28:05;23.10;92.70
9223;DHT22;7557;51.698;3.942;2022-07-19T03:30:32;23.00;92.80
9223;DHT22;7557;51.698;3.942;2022-07-19T03:32:59;23.00;92.90
9223;DHT22;7557;51.698;3.942;2022-07-19T03:35:26;22.90;92.90
9223;DHT22;7557;51.698;3.942;2022-07-19T03:37:53;22.90;93.00
9223;DHT22;7557;51.698;3.942;2022-07-19T03:40:23;22.70;93.20
9223;DHT22;7557;51.698;3.942;2022-07-19T03:42:50;22.70;93.30
9223;DHT22;7557;51.698;3.942;2022-07-19T03:45:17;22.60;93.30
9223;DHT22;7557;51.698;3.942;2022-07-19T03:47:44;22.60;93.40
9223;DHT22;7557;51.698;3.942;2022-07-19T03:50:11;22.50;93.40
9223;DHT22;7557;51.698;3.942;2022-07-19T03:52:38;22.50;93.50
9223;DHT22;7557;51.698;3.942;2022-07-19T03:55:06;22.60;93.50
9223;DHT22;7557;51.698;3.942;2022-07-19T03:57:34;22.70;93.40
9223;DHT22;7557;51.698;3.942;2022-07-19T04:00:02;22.80;93.20
9223;DHT22;7557;51.698;3.942;2022-07-19T04:02:29;22.90;93.50
9223;DHT22;7557;51.698;3.942;2022-07-19T04:04:57;22.80;93.10
9223;DHT22;7557;51.698;3.942;2022-07-19T04:07:25;22.70;93.20
9223;DHT22;7557;51.698;3.942;2022-07-19T04:09:52;22.60;93.30
9223;DHT22;7557;51.698;3.942;2022-07-19T04:12:19;22.60;93.40
9223;DHT22;7557;51.698;3.942;2022-07-19T04:14:47;22.60;93.30
9223;DHT22;7557;51.698;3.942;2022-07-19T04:17:14;22.70;93.20
9223;DHT22;7557;51.698;3.942;2022-07-19T04:19:42;22.80;93.20
9223;DHT22;7557;51.698;3.942;2022-07-19T04:22:10;22.80;93.20
9223;DHT22;7557;51.698;3.942;2022-07-19T04:24:37;22.80;93.30
9223;DHT22;7557;51.698;3.942;2022-07-19T04:27:04;22.70;93.40
9223;DHT22;7557;51.698;3.942;2022-07-19T04:29:31;22.60;93.50
9223;DHT22;7557;51.698;3.942;2022-07-19T04:31:59;22.70;93.40
9223;DHT22;7557;51.698;3.942;2022-07-19T04:34:26;22.80;93.30
9223;DHT22;7557;51.698;3.942;2022-07-19T04:36:53;22.80;93.40
9223;DHT22;7557;51.698;3.942;2022-07-19T04:39:21;22.70;93.40
9223;DHT22;7557;51.698;3.942;2022-07-19T04:41:48;22.70;93.60
9223;DHT22;7557;51.698;3.942;2022-07-19T04:44:15;22.60;93.60
9223;DHT22;7557;51.698;3.942;2022-07-19T04:46:42;22.60;93.70
9223;DHT22;7557;51.698;3.942;2022-07-19T04:49:10;22.60;93.60
9223;DHT22;7557;51.698;3.942;2022-07-19T04:51:37;22.70;93.60
9223;DHT22;7557;51.698;3.942;2022-07-19T04:54:04;22.80;93.50
9223;DHT22;7557;51.698;3.942;2022-07-19T04:56:31;22.90;93.50
9223;DHT22;7557;51.698;3.942;2022-07-19T04:58:58;22.90;93.50
9223;DHT22;7557;51.698;3.942;2022-07-19T05:01:26;23.00;93.60
9223;DHT22;7557;51.698;3.942;2022-07-19T05:03:53;23.00;93.60
9223;DHT22;7557;51.698;3.942;2022-07-19T05:06:22;23.00;93.70
9223;DHT22;7557;51.698;3.942;2022-07-19T05:08:50;23.00;93.80
9223;DHT22;7557;51.698;3.942;2022-07-19T05:11:18;23.00;94.30
9223;DHT22;7557;51.698;3.942;2022-07-19T05:13:45;23.20;94.10
9223;DHT22;7557;51.698;3.942;2022-07-19T05:16:12;23.30;94.10
9223;DHT22;7557;51.698;3.942;2022-07-19T05:18:39;23.40;94.00
9223;DHT22;7557;51.698;3.942;2022-07-19T05:21:06;23.50;94.00
9223;DHT22;7557;51.698;3.942;2022-07-19T05:23:35;23.60;94.10
9223;DHT22;7557;51.698;3.942;2022-07-19T05:26:02;23.80;94.30
9223;DHT22;7557;51.698;3.942;2022-07-19T05:28:29;23.90;94.40
9223;DHT22;7557;51.698;3.942;2022-07-19T05:30:56;24.10;94.50
9223;DHT22;7557;51.698;3.942;2022-07-19T05:33:24;24.20;94.70
9223;DHT22;7557;51.698;3.942;2022-07-19T05:35:51;24.40;94.90
9223;DHT22;7557;51.698;3.942;2022-07-19T05:38:18;24.50;95.30
9223;DHT22;7557;51.698;3.942;2022-07-19T05:40:46;24.70;95.80
9223;DHT22;7557;51.698;3.942;2022-07-19T05:43:13;24.90;96.20
9223;DHT22;7557;51.698;3.942;2022-07-19T05:45:41;25.10;96.20
9223;DHT22;7557;51.698;3.942;2022-07-19T05:48:08;25.20;96.30
9223;DHT22;7557;51.698;3.942;2022-07-19T05:50:35;25.30;96.40
9223;DHT22;7557;51.698;3.942;2022-07-19T05:53:02;25.30;96.40
9223;DHT22;7557;51.698;3.942;2022-07-19T05:55:29;25.50;96.30
9223;DHT22;7557;51.698;3.942;2022-07-19T05:57:58;25.60;96.30
9223;DHT22;7557;51.698;3.942;2022-07-19T06:00:25;25.90;96.00
9223;DHT22;7557;51.698;3.942;2022-07-19T06:02:52;26.10;95.60
9223;DHT22;7557;51.698;3.942;2022-07-19T06:05:19;26.40;95.00
9223;DHT22;7557;51.698;3.942;2022-07-19T06:07:46;26.60;94.50
9223;DHT22;7557;51.698;3.942;2022-07-19T06:10:14;26.80;93.80
9223;DHT22;7557;51.698;3.942;2022-07-19T06:12:41;26.90;93.30
9223;DHT22;7557;51.698;3.942;2022-07-19T06:15:10;27.00;92.80
9223;DHT22;7557;51.698;3.942;2022-07-19T06:17:37;27.10;92.60
9223;DHT22;7557;51.698;3.942;2022-07-19T06:20:05;27.20;92.50
9223;DHT22;7557;51.698;3.942;2022-07-19T06:22:32;27.40;92.10
9223;DHT22;7557;51.698;3.942;2022-07-19T06:24:59;27.50;91.80
9223;DHT22;7557;51.698;3.942;2022-07-19T06:27:27;27.60;91.30
9223;DHT22;7557;51.698;3.942;2022-07-19T06:29:54;27.70;90.90
9223;DHT22;7557;51.698;3.942;2022-07-19T06:32:22;27.80;90.50
9223;DHT22;7557;51.698;3.942;2022-07-19T06:34:49;27.80;90.30
9223;DHT22;7557;51.698;3.942;2022-07-19T06:37:16;27.70;90.30
9223;DHT22;7557;51.698;3.942;2022-07-19T06:39:43;27.80;90.20
9223;DHT22;7557;51.698;3.942;2022-07-19T06:42:10;27.90;90.20
9223;DHT22;7557;51.698;3.942;2022-07-19T06:44:38;28.00;90.10
9223;DHT22;7557;51.698;3.942;2022-07-19T06:47:05;28.10;89.20
9223;DHT22;7557;51.698;3.942;2022-07-19T06:49:33;28.20;88.50
9223;DHT22;7557;51.698;3.942;2022-07-19T06:52:00;28.20;88.50
9223;DHT22;7557;51.698;3.942;2022-07-19T06:54:28;28.20;87.90
9223;DHT22;7557;51.698;3.942;2022-07-19T06:56:55;28.20;88.00
9223;DHT22;7557;51.698;3.942;2022-07-19T06:59:22;28.40;87.70
9223;DHT22;7557;51.698;3.942;2022-07-19T07:01:49;28.40;87.20
9223;DHT22;7557;51.698;3.942;2022-07-19T07:04:16;28.50;86.90
9223;DHT22;7557;51.698;3.942;2022-07-19T07:06:45;28.50;86.40
9223;DHT22;7557;51.698;3.942;2022-07-19T07:09:12;28.60;85.80
9223;DHT22;7557;51.698;3.942;2022-07-19T07:11:39;28.70;85.60
9223;DHT22;7557;51.698;3.942;2022-07-19T07:14:07;28.80;85.10
9223;DHT22;7557;51.698;3.942;2022-07-19T07:16:34;28.90;84.90
9223;DHT22;7557;51.698;3.942;2022-07-19T07:19:01;29.10;85.00
9223;DHT22;7557;51.698;3.942;2022-07-19T07:21:28;29.20;84.60
9223;DHT22;7557;51.698;3.942;2022-07-19T07:24:02;29.30;84.60
9223;DHT22;7557;51.698;3.942;2022-07-19T07:26:29;29.60;84.60
9223;DHT22;7557;51.698;3.942;2022-07-19T07:33:59;30.00;83.60
9223;DHT22;7557;51.698;3.942;2022-07-19T07:36:26;30.30;83.00
9223;DHT22;7557;51.698;3.942;2022-07-19T07:38:53;30.40;82.00
9223;DHT22;7557;51.698;3.942;2022-07-19T07:41:22;30.60;81.10
9223;DHT22;7557;51.698;3.942;2022-07-19T07:43:49;30.70;80.10
9223;DHT22;7557;51.698;3.942;2022-07-19T07:46:18;30.80;80.20
9223;DHT22;7557;51.698;3.942;2022-07-19T07:48:45;30.90;80.20
9223;DHT22;7557;51.698;3.942;2022-07-19T07:51:12;31.10;79.90
9223;DHT22;7557;51.698;3.942;2022-07-19T07:53:39;31.20;80.00
9223;DHT22;7557;51.698;3.942;2022-07-19T07:56:06;31.20;79.50
9223;DHT22;7557;51.698;3.942;2022-07-19T07:58:35;31.40;79.50
9223;DHT22;7557;51.698;3.942;2022-07-19T08:01:03;31.40;79.40
9223;DHT22;7557;51.698;3.942;2022-07-19T08:03:30;31.50;79.20
9223;DHT22;7557;51.698;3.942;2022-07-19T08:05:57;31.70;78.40
9223;DHT22;7557;51.698;3.942;2022-07-19T08:08:24;31.80;78.10
9223;DHT22;7557;51.698;3.942;2022-07-19T08:10:52;32.00;77.70
9223;DHT22;7557;51.698;3.942;2022-07-19T08:13:19;32.10;77.20
9223;DHT22;7557;51.698;3.942;2022-07-19T08:15:48;32.20;76.90
9223;DHT22;7557;51.698;3.942;2022-07-19T08:18:16;32.30;76.10
9223;DHT22;7557;51.698;3.942;2022-07-19T08:20:44;32.40;74.80
9223;DHT22;7557;51.698;3.942;2022-07-19T08:23:11;32.50;74.60
9223;DHT22;7557;51.698;3.942;2022-07-19T08:25:38;32.60;74.30
9223;DHT22;7557;51.698;3.942;2022-07-19T08:28:05;32.80;73.50
9223;DHT22;7557;51.698;3.942;2022-07-19T08:30:32;32.90;72.90
9223;DHT22;7557;51.698;3.942;2022-07-19T08:33:01;33.10;71.90
9223;DHT22;7557;51.698;3.942;2022-07-19T08:35:32;33.20;71.40
9223;DHT22;7557;51.698;3.942;2022-07-19T08:37:59;33.30;70.80
9223;DHT22;7557;51.698;3.942;2022-07-19T08:40:26;33.40;70.30
9223;DHT22;7557;51.698;3.942;2022-07-19T08:42:54;33.40;70.30
9223;DHT22;7557;51.698;3.942;2022-07-19T08:45:25;33.50;70.30
9223;DHT22;7557;51.698;3.942;2022-07-19T08:47:55;33.60;69.90
9223;DHT22;7557;51.698;3.942;2022-07-19T08:50:26;33.80;68.80
9223;DHT22;7557;51.698;3.942;2022-07-19T08:52:53;33.90;69.00
9223;DHT22;7557;51.698;3.942;2022-07-19T08:55:22;34.00;69.40
9223;DHT22;7557;51.698;3.942;2022-07-19T08:57:49;34.20;69.70
9223;DHT22;7557;51.698;3.942;2022-07-19T09:00:28;34.30;68.90
9223;DHT22;7557;51.698;3.942;2022-07-19T09:02:57;34.50;68.90
9223;DHT22;7557;51.698;3.942;2022-07-19T09:05:27;34.60;68.10
9223;DHT22;7557;51.698;3.942;2022-07-19T09:08:04;34.60;67.50
9223;DHT22;7557;51.698;3.942;2022-07-19T09:10:32;34.80;67.40
9223;DHT22;7557;51.698;3.942;2022-07-19T09:13:03;35.00;67.60
9223;DHT22;7557;51.698;3.942;2022-07-19T09:15:45;35.20;66.60
9223;DHT22;7557;51.698;3.942;2022-07-19T09:18:16;35.30;66.70
9223;DHT22;7557;51.698;3.942;2022-07-19T09:20:47;35.40;67.10
9223;DHT22;7557;51.698;3.942;2022-07-19T09:23:15;35.50;65.90
9223;DHT22;7557;51.698;3.942;2022-07-19T09:25:44;35.60;65.30
9223;DHT22;7557;51.698;3.942;2022-07-19T09:28:15;35.70;65.60
9223;DHT22;7557;51.698;3.942;2022-07-19T09:30:44;35.90;65.00
9223;DHT22;7557;51.698;3.942;2022-07-19T09:33:14;36.10;64.90
9223;DHT22;7557;51.698;3.942;2022-07-19T09:35:43;36.30;65.00
9223;DHT22;7557;51.698;3.942;2022-07-19T09:38:24;36.50;65.40
9223;DHT22;7557;51.698;3.942;2022-07-19T09:40:52;36.60;63.70
9223;DHT22;7557;51.698;3.942;2022-07-19T09:43:20;36.60;64.30
9223;DHT22;7557;51.698;3.942;2022-07-19T09:45:51;36.60;63.20
9223;DHT22;7557;51.698;3.942;2022-07-19T09:48:19;36.40;63.80
9223;DHT22;7557;51.698;3.942;2022-07-19T09:50:46;36.50;63.80
9223;DHT22;7557;51.698;3.942;2022-07-19T09:53:15;36.60;64.00
9223;DHT22;7557;51.698;3.942;2022-07-19T09:55:45;36.80;62.80
9223;DHT22;7557;51.698;3.942;2022-07-19T09:58:13;36.70;62.40
9223;DHT22;7557;51.698;3.942;2022-07-19T10:00:43;36.80;61.70
9223;DHT22;7557;51.698;3.942;2022-07-19T10:03:11;36.80;61.30
9223;DHT22;7557;51.698;3.942;2022-07-19T10:05:41;37.00;61.50
9223;DHT22;7557;51.698;3.942;2022-07-19T10:08:08;37.10;61.00
9223;DHT22;7557;51.698;3.942;2022-07-19T10:10:35;37.10;59.60
9223;DHT22;7557;51.698;3.942;2022-07-19T10:13:04;37.00;59.80
9223;DHT22;7557;51.698;3.942;2022-07-19T10:15:37;37.00;61.20
9223;DHT22;7557;51.698;3.942;2022-07-19T10:18:11;37.20;61.00
9223;DHT22;7557;51.698;3.942;2022-07-19T10:20:39;37.30;60.70
9223;DHT22;7557;51.698;3.942;2022-07-19T10:23:09;37.40;59.60
9223;DHT22;7557;51.698;3.942;2022-07-19T10:25:41;37.50;60.40
9223;DHT22;7557;51.698;3.942;2022-07-19T10:28:31;37.60;59.50
9223;DHT22;7557;51.698;3.942;2022-07-19T10:31:00;37.50;58.40
9223;DHT22;7557;51.698;3.942;2022-07-19T10:33:32;37.40;58.50
9223;DHT22;7557;51.698;3.942;2022-07-19T10:39:22;37.30;58.50
9223;DHT22;7557;51.698;3.942;2022-07-19T10:42:06;37.40;58.60
9223;DHT22;7557;51.698;3.942;2022-07-19T10:44:35;37.50;57.80
9223;DHT22;7557;51.698;3.942;2022-07-19T10:47:22;37.60;57.10
9223;DHT22;7557;51.698;3.942;2022-07-19T10:49:49;37.60;57.20
9223;DHT22;7557;51.698;3.942;2022-07-19T10:52:38;37.60;57.10
9223;DHT22;7557;51.698;3.942;2022-07-19T10:55:24;37.50;57.20
9223;DHT22;7557;51.698;3.942;2022-07-19T10:58:07;37.50;56.90
9223;DHT22;7557;51.698;3.942;2022-07-19T11:00:43;37.50;56.40
9223;DHT22;7557;51.698;3.942;2022-07-19T11:03:28;37.50;57.10
9223;DHT22;7557;51.698;3.942;2022-07-19T11:05:57;37.60;57.30
9223;DHT22;7557;51.698;3.942;2022-07-19T11:08:32;37.70;57.50
9223;DHT22;7557;51.698;3.942;2022-07-19T11:11:04;37.80;57.10
9223;DHT22;7557;51.698;3.942;2022-07-19T11:13:31;37.80;56.00
9223;DHT22;7557;51.698;3.942;2022-07-19T11:16:00;37.50;55.90
9223;DHT22;7557;51.698;3.942;2022-07-19T11:18:28;37.30;55.90
9223;DHT22;7557;51.698;3.942;2022-07-19T11:20:57;37.20;56.00
9223;DHT22;7557;51.698;3.942;2022-07-19T11:23:28;37.20;55.60
9223;DHT22;7557;51.698;3.942;2022-07-19T11:26:05;37.10;55.60
9223;DHT22;7557;51.698;3.942;2022-07-19T11:28:33;37.20;55.90
9223;DHT22;7557;51.698;3.942;2022-07-19T11:31:10;37.30;55.90
9223;DHT22;7557;51.698;3.942;2022-07-19T11:33:38;37.30;55.80
9223;DHT22;7557;51.698;3.942;2022-07-19T11:36:06;37.40;55.60
9223;DHT22;7557;51.698;3.942;2022-07-19T11:38:35;37.50;55.40
9223;DHT22;7557;51.698;3.942;2022-07-19T11:41:03;37.50;55.00
9223;DHT22;7557;51.698;3.942;2022-07-19T11:43:30;37.40;54.80
9223;DHT22;7557;51.698;3.942;2022-07-19T11:45:57;37.50;55.20
9223;DHT22;7557;51.698;3.942;2022-07-19T11:48:30;37.70;55.00
9223;DHT22;7557;51.698;3.942;2022-07-19T11:51:03;37.80;54.30
9223;DHT22;7557;51.698;3.942;2022-07-19T11:53:31;37.80;54.50
9223;DHT22;7557;51.698;3.942;2022-07-19T11:55:59;37.90;54.40
9223;DHT22;7557;51.698;3.942;2022-07-19T11:58:27;37.90;54.40
9223;DHT22;7557;51.698;3.942;2022-07-19T12:01:00;37.90;53.80
9223;DHT22;7557;51.698;3.942;2022-07-19T12:03:29;37.90;52.90
9223;DHT22;7557;51.698;3.942;2022-07-19T12:05:57;37.80;53.00
9223;DHT22;7557;51.698;3.942;2022-07-19T12:08:36;37.80;53.40
9223;DHT22;7557;51.698;3.942;2022-07-19T12:11:16;37.90;52.90
9223;DHT22;7557;51.698;3.942;2022-07-19T12:13:43;37.90;53.10
9223;DHT22;7557;51.698;3.942;2022-07-19T12:16:12;37.90;53.30
9223;DHT22;7557;51.698;3.942;2022-07-19T12:18:47;38.00;53.00
9223;DHT22;7557;51.698;3.942;2022-07-19T12:21:28;38.00;53.30
9223;DHT22;7557;51.698;3.942;2022-07-19T12:24:20;38.10;52.40
9223;DHT22;7557;51.698;3.942;2022-07-19T12:26:59;38.00;51.90
9223;DHT22;7557;51.698;3.942;2022-07-19T12:29:30;37.90;52.40
9223;DHT22;7557;51.698;3.942;2022-07-19T12:31:59;37.90;52.20
9223;DHT22;7557;51.698;3.942;2022-07-19T12:34:40;37.90;52.50
9223;DHT22;7557;51.698;3.942;2022-07-19T12:37:21;37.90;52.50
9223;DHT22;7557;51.698;3.942;2022-07-19T12:39:57;37.90;52.90
9223;DHT22;7557;51.698;3.942;2022-07-19T12:42:25;37.90;52.30
9223;DHT22;7557;51.698;3.942;2022-07-19T12:44:52;38.00;51.90
9223;DHT22;7557;51.698;3.942;2022-07-19T12:47:19;38.00;51.50
9223;DHT22;7557;51.698;3.942;2022-07-19T12:49:48;38.10;51.80
9223;DHT22;7557;51.698;3.942;2022-07-19T12:52:16;38.10;51.60
9223;DHT22;7557;51.698;3.942;2022-07-19T12:54:43;38.00;51.10
9223;DHT22;7557;51.698;3.942;2022-07-19T12:57:10;38.00;51.60
9223;DHT22;7557;51.698;3.942;2022-07-19T12:59:37;38.00;51.20
9223;DHT22;7557;51.698;3.942;2022-07-19T13:02:09;38.10;50.50
9223;DHT22;7557;51.698;3.942;2022-07-19T13:04:38;38.10;49.90
9223;DHT22;7557;51.698;3.942;2022-07-19T13:07:07;37.90;50.10
9223;DHT22;7557;51.698;3.942;2022-07-19T13:09:35;37.90;50.50
9223;DHT22;7557;51.698;3.942;2022-07-19T13:12:05;37.90;50.70
9223;DHT22;7557;51.698;3.942;2022-07-19T13:17:00;37.90;50.20
9223;DHT22;7557;51.698;3.942;2022-07-19T13:19:27;37.80;50.90
9223;DHT22;7557;51.698;3.942;2022-07-19T13:21:55;37.90;51.20
9223;DHT22;7557;51.698;3.942;2022-07-19T13:24:23;37.90;51.40
9223;DHT22;7557;51.698;3.942;2022-07-19T13:26:51;38.00;51.00
9223;DHT22;7557;51.698;3.942;2022-07-19T13:29:18;38.10;50.60
9223;DHT22;7557;51.698;3.942;2022-07-19T13:31:45;38.00;50.90
9223;DHT22;7557;51.698;3.942;2022-07-19T13:34:12;38.10;51.50
9223;DHT22;7557;51.698;3.942;2022-07-19T13:36:39;38.10;51.40
9223;DHT22;7557;51.698;3.942;2022-07-19T13:39:06;38.20;51.10
9223;DHT22;7557;51.698;3.942;2022-07-19T13:41:36;38.10;50.70
9223;DHT22;7557;51.698;3.942;2022-07-19T13:44:04;38.10;50.40
9223;DHT22;7557;51.698;3.942;2022-07-19T13:46:31;38.00;51.20
9223;DHT22;7557;51.698;3.942;2022-07-19T13:48:59;38.00;51.20
9223;DHT22;7557;51.698;3.942;2022-07-19T13:51:27;38.00;51.00
9223;DHT22;7557;51.698;3.942;2022-07-19T13:53:54;38.10;51.30
9223;DHT22;7557;51.698;3.942;2022-07-19T13:56:22;38.20;51.10
9223;DHT22;7557;51.698;3.942;2022-07-19T13:58:50;38.10;51.30
9223;DHT22;7557;51.698;3.942;2022-07-19T14:01:18;38.10;51.70
9223;DHT22;7557;51.698;3.942;2022-07-19T14:03:46;38.10;51.60
9223;DHT22;7557;51.698;3.942;2022-07-19T14:06:14;38.20;52.10
9223;DHT22;7557;51.698;3.942;2022-07-19T14:08:41;38.10;51.30
9223;DHT22;7557;51.698;3.942;2022-07-19T14:11:08;38.10;50.90
9223;DHT22;7557;51.698;3.942;2022-07-19T14:13:36;38.10;51.20
9223;DHT22;7557;51.698;3.942;2022-07-19T14:16:05;38.10;51.00
9223;DHT22;7557;51.698;3.942;2022-07-19T14:18:32;38.00;51.80
9223;DHT22;7557;51.698;3.942;2022-07-19T14:20:59;38.00;51.60
9223;DHT22;7557;51.698;3.942;2022-07-19T14:23:27;37.90;51.80
9223;DHT22;7557;51.698;3.942;2022-07-19T14:25:54;37.90;52.20
9223;DHT22;7557;51.698;3.942;2022-07-19T14:28:22;37.90;51.80
9223;DHT22;7557;51.698;3.942;2022-07-19T14:30:49;37.90;52.10
9223;DHT22;7557;51.698;3.942;2022-07-19T14:33:18;37.80;51.80
9223;DHT22;7557;51.698;3.942;2022-07-19T14:35:45;37.80;51.80
9223;DHT22;7557;51.698;3.942;2022-07-19T14:38:12;37.80;51.80
9223;DHT22;7557;51.698;3.942;2022-07-19T14:40:39;37.80;51.50
9223;DHT22;7557;51.698;3.942;2022-07-19T14:43:06;37.80;51.20
9223;DHT22;7557;51.698;3.942;2022-07-19T14:45:34;37.70;51.80
9223;DHT22;7557;51.698;3.942;2022-07-19T14:48:01;37.60;51.40
9223;DHT22;7557;51.698;3.942;2022-07-19T14:50:30;37.60;51.10
9223;DHT22;7557;51.698;3.942;2022-07-19T14:52:57;37.70;50.90
9223;DHT22;7557;51.698;3.942;2022-07-19T14:55:24;37.70;51.00
9223;DHT22;7557;51.698;3.942;2022-07-19T14:57:53;37.70;50.90
9223;DHT22;7557;51.698;3.942;2022-07-19T15:00:20;37.70;50.70
9223;DHT22;7557;51.698;3.942;2022-07-19T15:02:47;37.70;50.60
9223;DHT22;7557;51.698;3.942;2022-07-19T15:05:14;37.70;50.40
9223;DHT22;7557;51.698;3.942;2022-07-19T15:07:43;37.60;50.30
9223;DHT22;7557;51.698;3.942;2022-07-19T15:10:10;37.60;50.20
9223;DHT22;7557;51.698;3.942;2022-07-19T15:12:37;37.50;50.60
9223;DHT22;7557;51.698;3.942;2022-07-19T15:15:05;37.50;49.80
9223;DHT22;7557;51.698;3.942;2022-07-19T15:17:34;37.50;49.90
9223;DHT22;7557;51.698;3.942;2022-07-19T15:20:01;37.50;50.10
9223;DHT22;7557;51.698;3.942;2022-07-19T15:22:29;37.50;49.30
9223;DHT22;7557;51.698;3.942;2022-07-19T15:24:57;37.50;49.40
9223;DHT22;7557;51.698;3.942;2022-07-19T15:27:25;37.50;49.50
9223;DHT22;7557;51.698;3.942;2022-07-19T15:29:52;37.50;49.50
9223;DHT22;7557;51.698;3.942;2022-07-19T15:32:19;37.50;49.00
9223;DHT22;7557;51.698;3.942;2022-07-19T15:34:46;37.50;48.90
9223;DHT22;7557;51.698;3.942;2022-07-19T15:37:13;37.40;49.10
9223;DHT22;7557;51.698;3.942;2022-07-19T15:39:40;37.40;49.50
9223;DHT22;7557;51.698;3.942;2022-07-19T15:42:09;37.40;49.10
9223;DHT22;7557;51.698;3.942;2022-07-19T15:44:36;37.40;48.80
9223;DHT22;7557;51.698;3.942;2022-07-19T15:47:03;37.40;49.00
9223;DHT22;7557;51.698;3.942;2022-07-19T15:49:30;37.50;48.30
9223;DHT22;7557;51.698;3.942;2022-07-19T15:51:57;37.50;48.50
9223;DHT22;7557;51.698;3.942;2022-07-19T15:54:25;37.50;48.10
9223;DHT22;7557;51.698;3.942;2022-07-19T15:56:52;37.40;48.40
9223;DHT22;7557;51.698;3.942;2022-07-19T15:59:20;37.40;48.30
9223;DHT22;7557;51.698;3.942;2022-07-19T16:01:48;37.40;48.70
9223;DHT22;7557;51.698;3.942;2022-07-19T16:04:15;37.50;48.80
9223;DHT22;7557;51.698;3.942;2022-07-19T16:06:42;37.50;48.90
9223;DHT22;7557;51.698;3.942;2022-07-19T16:09:09;37.40;48.70
9223;DHT22;7557;51.698;3.942;2022-07-19T16:11:36;37.40;48.30
9223;DHT22;7557;51.698;3.942;2022-07-19T16:14:04;37.40;48.30
9223;DHT22;7557;51.698;3.942;2022-07-19T16:16:34;37.40;48.70
9223;DHT22;7557;51.698;3.942;2022-07-19T16:19:02;37.40;48.40
9223;DHT22;7557;51.698;3.942;2022-07-19T16:21:29;37.30;48.20